Alpha Afovos — SZSJ — position and weather

sailwx.info

Track history (hours):
 
Tides and Currents Weather Stations Pressure Air Temp Water Temp Dewpoint Dewpoint Depression Visibility Wind Speed Wind Dir Waves Ship Positions

Alpha Afovos

Last reported at 2016-Sep-13 09:33 UTC. Time now 2016-Sep-29 17:03 UTC.
Position N 31°18' E 121°48'.
Warning: this ship's position is 16 days out of date.

Length 223 m; draft 7.2 m.

Type: Cargo ship. MMSI: 239802000.

Date/timePositionNaut miles runAvg speedWind from/ knotsBaromVisibWave heightAir tempDewpointWater temp
2016-Sep-13 09:33N 31°18' E 121°48'2311.6
2016-Sep-13 07:33N 31°30' E 121°25'1312.9
2016-Sep-13 06:33N 31°39' E 121°14'18 1.3
2016-Sep-12 17:18N 31°49' E 120°57'0 0.0
2016-Sep-11 14:24N 31°49' E 120°57'0 0.0
2016-Sep-11 13:24N 31°49' E 120°57'0 0.0
2016-Sep-11 08:24N 31°49' E 120°57'0 0.2
2016-Sep-11 07:28N 31°49' E 120°57'2 1.6
2016-Sep-11 06:29N 31°49' E 120°55'6 0.4
2016-Sep-10 15:33N 31°55' E 120°53'0 0.1
2016-Sep-10 14:33N 31°55' E 120°53'0 0.0
2016-Sep-10 00:27N 31°55' E 120°53'0 0.1
2016-Sep-09 23:27N 31°55' E 120°53'0 0.0
2016-Sep-09 22:18N 31°55' E 120°53'0 0.1
2016-Sep-09 21:33N 31°55' E 120°53'0 0.0
2016-Sep-09 20:12N 31°55' E 120°53'0 0.0
2016-Sep-09 19:30N 31°55' E 120°53'0 0.0
2016-Sep-09 18:33N 31°55' E 120°53'0 0.0
2016-Sep-09 17:33N 31°55' E 120°53'0 0.0
2016-Sep-09 15:30N 31°55' E 120°53'0 0.1
2016-Sep-09 14:33N 31°55' E 120°53'7 6.0
2016-Sep-09 13:19N 31°48' E 120°56'7 9.1
2016-Sep-09 12:33N 31°46' E 121°04'10 9.5
2016-Sep-09 11:33N 31°40' E 121°13'1110.2
2016-Sep-09 10:31N 31°32' E 121°21'1010.2
2016-Sep-09 09:33N 31°26' E 121°30'10 9.5
2016-Sep-09 08:33N 31°21' E 121°40'3 0.3
2016-Sep-09 00:31N 31°19' E 121°42'0 0.0
2016-Sep-08 22:25N 31°19' E 121°42'0 0.0
2016-Sep-08 19:25N 31°19' E 121°42'0 0.0
2016-Sep-08 16:31N 31°19' E 121°42'0 0.0
2016-Sep-08 09:31N 31°19' E 121°42'0 0.0
2016-Sep-08 07:07N 31°19' E 121°42'0 0.0
2016-Sep-07 09:19N 31°19' E 121°42'0 0.0
2016-Sep-07 08:33N 31°19' E 121°42'0 0.0
2016-Sep-07 07:31N 31°19' E 121°42'0 0.5
2016-Sep-07 06:31N 31°19' E 121°42'  
Track history (hours):
 
Tides and Currents Weather Stations Pressure Air Temp Water Temp Dewpoint Dewpoint Depression Visibility Wind Speed Wind Dir Waves Ship Positions

Alpha Afovos

Last reported at 2016-Sep-13 09:33 UTC. Time now 2016-Sep-29 17:03 UTC.
Position N 31°18' E 121°48'.
Warning: this ship's position is 16 days out of date.

Length 223 m; draft 7.2 m.

Type: Cargo ship. MMSI: 239802000.

Date/timePositionNaut miles runAvg speedWind from/ knotsBaromVisibWave heightAir tempDewpointWater temp
2016-Sep-13 09:33N 31°18' E 121°48'2311.6
2016-Sep-13 07:33N 31°30' E 121°25'1312.9
2016-Sep-13 06:33N 31°39' E 121°14'18 1.3
2016-Sep-12 17:18N 31°49' E 120°57'0 0.0
2016-Sep-11 14:24N 31°49' E 120°57'0 0.0
2016-Sep-11 13:24N 31°49' E 120°57'0 0.0
2016-Sep-11 08:24N 31°49' E 120°57'0 0.2
2016-Sep-11 07:28N 31°49' E 120°57'2 1.6
2016-Sep-11 06:29N 31°49' E 120°55'6 0.4
2016-Sep-10 15:33N 31°55' E 120°53'0 0.1
2016-Sep-10 14:33N 31°55' E 120°53'0 0.0
2016-Sep-10 00:27N 31°55' E 120°53'0 0.1
2016-Sep-09 23:27N 31°55' E 120°53'0 0.0
2016-Sep-09 22:18N 31°55' E 120°53'0 0.1
2016-Sep-09 21:33N 31°55' E 120°53'0 0.0
2016-Sep-09 20:12N 31°55' E 120°53'0 0.0
2016-Sep-09 19:30N 31°55' E 120°53'0 0.0
2016-Sep-09 18:33N 31°55' E 120°53'0 0.0
2016-Sep-09 17:33N 31°55' E 120°53'0 0.0
2016-Sep-09 15:30N 31°55' E 120°53'0 0.1
2016-Sep-09 14:33N 31°55' E 120°53'7 6.0
2016-Sep-09 13:19N 31°48' E 120°56'7 9.1
2016-Sep-09 12:33N 31°46' E 121°04'10 9.5
2016-Sep-09 11:33N 31°40' E 121°13'1110.2
2016-Sep-09 10:31N 31°32' E 121°21'1010.2
2016-Sep-09 09:33N 31°26' E 121°30'10 9.5
2016-Sep-09 08:33N 31°21' E 121°40'3 0.3
2016-Sep-09 00:31N 31°19' E 121°42'0 0.0
2016-Sep-08 22:25N 31°19' E 121°42'0 0.0
2016-Sep-08 19:25N 31°19' E 121°42'0 0.0
2016-Sep-08 16:31N 31°19' E 121°42'0 0.0
2016-Sep-08 09:31N 31°19' E 121°42'0 0.0
2016-Sep-08 07:07N 31°19' E 121°42'0 0.0
2016-Sep-07 09:19N 31°19' E 121°42'0 0.0
2016-Sep-07 08:33N 31°19' E 121°42'0 0.0
2016-Sep-07 07:31N 31°19' E 121°42'0 0.5
2016-Sep-07 06:31N 31°19' E 121°42'  

Dump ship's entire track history